Time;durP1;ratioP1;P1;durP2;ratioP2;P2;SDS_P1;SDS_P2;PMS_P1;PMS_P2;Temp;Humidity;BMP_temperature;BMP_pressure;BME280_temperature;BME280_humidity;BME280_pressure;Samples;Min_cycle;Max_cycle;Signal;HPM_P1;HPM_P2
2022/04/18 00:00:13;;;;;;;1.30;1.20;;;;;;;;;;5096295;28;20205;-87
2022/04/18 00:02:41;;;;;;;1.45;1.35;;;;;;;;;;5095483;28;20200;-88
2022/04/18 00:05:10;;;;;;;1.50;1.40;;;;;;;;;;5093986;28;20230;-88
2022/04/18 00:07:37;;;;;;;1.10;1.10;;;;;;;;;;5093991;22;20229;-83
2022/04/18 00:10:05;;;;;;;1.42;1.33;;;;;;;;;;5059318;28;20739;-84
2022/04/18 00:12:33;;;;;;;1.10;1.10;;;;;;;;;;5058052;28;20206;-84
2022/04/18 00:15:00;;;;;;;1.65;1.42;;;;;;;;;;5059277;28;20194;-84
2022/04/18 00:17:27;;;;;;;1.13;1.10;;;;;;;;;;5058776;28;20219;-83
2022/04/18 00:19:55;;;;;;;1.45;1.35;;;;;;;;;;5065199;28;20217;-84
2022/04/18 00:22:24;;;;;;;1.25;1.00;;;;;;;;;;5071329;28;20193;-84
2022/04/18 00:24:51;;;;;;;1.52;1.25;;;;;;;;;;5078848;28;20221;-84
2022/04/18 00:27:19;;;;;;;1.02;1.02;;;;;;;;;;5079121;28;20240;-83
2022/04/18 00:29:49;;;;;;;1.13;1.13;;;;;;;;;;5083088;28;20220;-84
2022/04/18 00:32:16;;;;;;;1.63;1.38;;;;;;;;;;5082484;28;20204;-83
2022/04/18 00:34:44;;;;;;;1.50;1.40;;;;;;;;;;5083798;28;20192;-84
2022/04/18 00:37:11;;;;;;;1.25;1.15;;;;;;;;;;5082923;28;20204;-84
2022/04/18 00:39:40;;;;;;;0.98;0.93;;;;;;;;;;5082825;28;20224;-83
2022/04/18 00:42:07;;;;;;;1.83;1.10;;;;;;;;;;5083440;28;20207;-83
2022/04/18 00:44:34;;;;;;;1.20;1.20;;;;;;;;;;5084297;28;20224;-83
2022/04/18 00:47:02;;;;;;;1.52;1.30;;;;;;;;;;5083603;28;20205;-83
2022/04/18 00:49:29;;;;;;;0.90;0.90;;;;;;;;;;5078008;28;20758;-84
2022/04/18 00:51:57;;;;;;;1.58;1.25;;;;;;;;;;5062585;28;20205;-83
2022/04/18 00:54:25;;;;;;;1.00;1.00;;;;;;;;;;5062921;28;20197;-83
2022/04/18 00:56:54;;;;;;;1.30;1.20;;;;;;;;;;5063049;28;20197;-84
2022/04/18 00:59:22;;;;;;;1.10;1.10;;;;;;;;;;5063749;28;20321;-84
2022/04/18 01:01:49;;;;;;;1.05;1.05;;;;;;;;;;5061671;28;20216;-84
2022/04/18 01:04:17;;;;;;;0.98;0.98;;;;;;;;;;5064301;28;20221;-84
2022/04/18 01:06:45;;;;;;;1.10;1.10;;;;;;;;;;5062778;28;20220;-83
2022/04/18 01:09:13;;;;;;;0.88;0.88;;;;;;;;;;5062677;28;20213;-84
2022/04/18 01:11:40;;;;;;;1.00;1.00;;;;;;;;;;5061529;28;20209;-84
2022/04/18 01:14:08;;;;;;;1.10;0.98;;;;;;;;;;5062490;28;20201;-84
2022/04/18 01:16:36;;;;;;;1.17;1.08;;;;;;;;;;5062405;28;20228;-84
2022/04/18 01:19:03;;;;;;;1.10;1.10;;;;;;;;;;5061022;28;20230;-84
2022/04/18 01:21:32;;;;;;;0.93;0.93;;;;;;;;;;5057201;28;20213;-84
2022/04/18 01:23:59;;;;;;;1.10;1.00;;;;;;;;;;5056160;28;20221;-83
2022/04/18 01:29:11;;;;;;;0.90;0.90;;;;;;;;;;5055788;28;20224;-83
2022/04/18 01:31:40;;;;;;;1.00;1.00;;;;;;;;;;5056199;28;20206;-83
2022/04/18 01:34:09;;;;;;;1.00;1.00;;;;;;;;;;5055934;28;20226;-84
2022/04/18 01:36:38;;;;;;;1.10;1.10;;;;;;;;;;5055608;28;20202;-84
2022/04/18 01:39:05;;;;;;;1.10;1.00;;;;;;;;;;5055200;28;20214;-83
2022/04/18 01:41:33;;;;;;;0.80;0.80;;;;;;;;;;5055260;28;20675;-83
2022/04/18 01:44:00;;;;;;;1.17;1.17;;;;;;;;;;5055357;28;20258;-83
2022/04/18 01:46:27;;;;;;;1.00;1.00;;;;;;;;;;5055864;28;20198;-83
2022/04/18 01:48:55;;;;;;;1.00;1.00;;;;;;;;;;5055441;28;20230;-83
2022/04/18 01:51:22;;;;;;;1.77;1.08;;;;;;;;;;5055610;28;20205;-84
2022/04/18 01:53:51;;;;;;;1.23;1.13;;;;;;;;;;5055938;28;20232;-84
2022/04/18 01:56:18;;;;;;;1.08;1.08;;;;;;;;;;5056036;28;20202;-83
2022/04/18 01:58:45;;;;;;;0.98;0.98;;;;;;;;;;5055940;28;20218;-84
2022/04/18 02:01:13;;;;;;;3.88;1.60;;;;;;;;;;5054957;28;20209;-83
2022/04/18 02:03:42;;;;;;;1.00;1.00;;;;;;;;;;5054723;28;20208;-83
2022/04/18 02:06:10;;;;;;;1.13;1.08;;;;;;;;;;5055260;28;20291;-83
2022/04/18 02:08:37;;;;;;;1.17;1.17;;;;;;;;;;5054984;28;20230;-83
2022/04/18 02:11:07;;;;;;;1.30;1.20;;;;;;;;;;5054899;28;20229;-83
2022/04/18 02:13:34;;;;;;;1.20;1.10;;;;;;;;;;5054648;28;20190;-83
2022/04/18 02:16:01;;;;;;;1.13;1.13;;;;;;;;;;5055268;28;20201;-83
2022/04/18 02:18:28;;;;;;;1.33;1.23;;;;;;;;;;5055010;28;20225;-84
2022/04/18 02:20:56;;;;;;;1.02;0.98;;;;;;;;;;5054382;28;20210;-83
2022/04/18 02:23:23;;;;;;;1.23;1.13;;;;;;;;;;5054669;28;20205;-83
2022/04/18 02:25:50;;;;;;;1.30;1.20;;;;;;;;;;5054564;28;20588;-83
2022/04/18 02:28:20;;;;;;;1.25;1.25;;;;;;;;;;5054474;28;20201;-83
2022/04/18 02:30:47;;;;;;;1.77;1.63;;;;;;;;;;5055284;28;20580;-83
2022/04/18 02:33:14;;;;;;;1.90;1.80;;;;;;;;;;5054537;28;20201;-83
2022/04/18 02:35:42;;;;;;;1.85;1.38;;;;;;;;;;5054920;28;20198;-83
2022/04/18 02:38:09;;;;;;;1.50;1.40;;;;;;;;;;5054778;28;20201;-83
2022/04/18 02:40:36;;;;;;;1.45;1.35;;;;;;;;;;5054486;28;20597;-83
2022/04/18 02:43:04;;;;;;;1.30;1.17;;;;;;;;;;5054326;28;20205;-83
2022/04/18 02:45:33;;;;;;;1.58;1.48;;;;;;;;;;5054830;28;20318;-83
2022/04/18 02:48:01;;;;;;;1.50;1.17;;;;;;;;;;5054588;28;20224;-83
2022/04/18 02:50:28;;;;;;;1.38;1.30;;;;;;;;;;5054321;28;20213;-83
2022/04/18 02:52:56;;;;;;;1.55;1.45;;;;;;;;;;5054316;28;20201;-83
2022/04/18 02:55:25;;;;;;;1.55;1.38;;;;;;;;;;5053828;28;20197;-83
2022/04/18 02:57:52;;;;;;;1.60;1.50;;;;;;;;;;5054292;28;20198;-83
2022/04/18 03:00:20;;;;;;;1.50;1.40;;;;;;;;;;5053975;28;20240;-83
2022/04/18 03:02:48;;;;;;;1.52;1.42;;;;;;;;;;5053780;28;20205;-83
2022/04/18 03:05:15;;;;;;;1.35;1.25;;;;;;;;;;5053193;28;20225;-83
2022/04/18 03:07:43;;;;;;;1.50;1.48;;;;;;;;;;5053918;28;20213;-83
2022/04/18 03:10:10;;;;;;;1.73;1.63;;;;;;;;;;5053617;28;20650;-83
2022/04/18 03:12:38;;;;;;;1.48;1.38;;;;;;;;;;5053256;28;20213;-83
2022/04/18 03:15:08;;;;;;;1.60;1.50;;;;;;;;;;5053492;28;20201;-83
2022/04/18 03:17:35;;;;;;;1.70;1.60;;;;;;;;;;5053199;28;20284;-83
2022/04/18 03:20:05;;;;;;;1.70;1.60;;;;;;;;;;5053941;28;20233;-83
2022/04/18 03:22:32;;;;;;;3.17;1.70;;;;;;;;;;5053517;28;20208;-83
2022/04/18 03:24:59;;;;;;;3.30;2.47;;;;;;;;;;5053736;28;20697;-83
2022/04/18 03:27:27;;;;;;;3.15;2.85;;;;;;;;;;5053767;28;20235;-83
2022/04/18 03:29:54;;;;;;;2.50;2.15;;;;;;;;;;5053944;28;20706;-83
2022/04/18 03:32:21;;;;;;;3.17;2.83;;;;;;;;;;5053602;28;20201;-83
2022/04/18 03:34:55;;;;;;;2.15;1.98;;;;;;;;;;5053578;28;20201;-83
2022/04/18 03:40:13;;;;;;;1.95;1.85;;;;;;;;;;5053322;28;20720;-83
2022/04/18 03:42:41;;;;;;;2.40;2.20;;;;;;;;;;5053342;28;20205;-83
2022/04/18 03:45:08;;;;;;;2.30;2.10;;;;;;;;;;5053119;28;20308;-83
2022/04/18 03:47:35;;;;;;;2.15;1.75;;;;;;;;;;5053177;28;20591;-83
2022/04/18 03:50:03;;;;;;;2.08;1.83;;;;;;;;;;5053076;28;20225;-83
2022/04/18 03:52:32;;;;;;;2.58;2.00;;;;;;;;;;5053067;28;20202;-83
2022/04/18 03:54:59;;;;;;;2.75;2.45;;;;;;;;;;5053216;28;20208;-83
2022/04/18 03:57:26;;;;;;;2.55;2.28;;;;;;;;;;5053042;28;20198;-83
2022/04/18 03:59:53;;;;;;;2.63;2.33;;;;;;;;;;5052925;28;20225;-83
2022/04/18 04:02:21;;;;;;;1.75;1.65;;;;;;;;;;5052547;28;20572;-83
2022/04/18 04:04:48;;;;;;;1.75;1.65;;;;;;;;;;5052967;28;20241;-82
2022/04/18 04:07:15;;;;;;;1.42;1.42;;;;;;;;;;5052837;28;20275;-83
2022/04/18 04:09:44;;;;;;;2.20;1.92;;;;;;;;;;5052952;28;20217;-83
2022/04/18 04:12:11;;;;;;;2.13;1.98;;;;;;;;;;5052799;28;20205;-83
2022/04/18 04:14:38;;;;;;;2.33;1.70;;;;;;;;;;5053301;28;20211;-83
2022/04/18 04:17:06;;;;;;;2.15;1.95;;;;;;;;;;5053233;28;20248;-83
2022/04/18 04:19:33;;;;;;;2.22;2.13;;;;;;;;;;5052935;28;20232;-83
2022/04/18 04:22:01;;;;;;;1.88;1.77;;;;;;;;;;5053158;28;20201;-83
2022/04/18 04:24:28;;;;;;;1.70;1.60;;;;;;;;;;5052972;28;20609;-82
2022/04/18 04:26:56;;;;;;;2.00;1.90;;;;;;;;;;5053392;28;20338;-83
2022/04/18 04:29:24;;;;;;;1.83;1.73;;;;;;;;;;5053295;28;20217;-83
2022/04/18 04:31:51;;;;;;;1.85;1.70;;;;;;;;;;5053275;28;20670;-82
2022/04/18 04:34:18;;;;;;;2.88;1.90;;;;;;;;;;5053465;28;20202;-83
2022/04/18 04:36:45;;;;;;;2.45;2.10;;;;;;;;;;5052940;28;20201;-83
2022/04/18 04:39:13;;;;;;;2.45;2.25;;;;;;;;;;5052614;28;20767;-83
2022/04/18 04:41:40;;;;;;;2.50;2.30;;;;;;;;;;5052522;28;20216;-83
2022/04/18 04:44:09;;;;;;;2.72;2.15;;;;;;;;;;5052866;28;20256;-83
2022/04/18 04:46:37;;;;;;;3.10;2.30;;;;;;;;;;5052864;28;20279;-83
2022/04/18 04:49:05;;;;;;;3.20;2.92;;;;;;;;;;5053033;28;20254;-83
2022/04/18 04:51:32;;;;;;;2.40;2.20;;;;;;;;;;5053114;28;20202;-83
2022/04/18 04:54:00;;;;;;;4.00;2.13;;;;;;;;;;5052811;28;20198;-83
2022/04/18 04:56:28;;;;;;;3.13;2.83;;;;;;;;;;5052125;28;20233;-83
2022/04/18 04:58:55;;;;;;;2.28;2.08;;;;;;;;;;5052094;28;20229;-82
2022/04/18 05:01:25;;;;;;;2.47;2.28;;;;;;;;;;5052464;28;20560;-83
2022/04/18 05:03:53;;;;;;;2.72;2.47;;;;;;;;;;5052247;28;20683;-82
2022/04/18 05:06:20;;;;;;;2.58;2.38;;;;;;;;;;5052205;28;20312;-84
2022/04/18 05:08:47;;;;;;;2.80;2.55;;;;;;;;;;5052245;28;20237;-83
2022/04/18 05:11:15;;;;;;;2.88;2.67;;;;;;;;;;5052185;28;20201;-83
2022/04/18 05:13:42;;;;;;;2.97;2.78;;;;;;;;;;5052409;28;20206;-83
2022/04/18 05:16:09;;;;;;;2.70;2.50;;;;;;;;;;5056910;28;20197;-83
2022/04/18 05:18:38;;;;;;;2.60;2.40;;;;;;;;;;5058034;28;20222;-84
2022/04/18 05:21:05;;;;;;;2.38;2.20;;;;;;;;;;5058013;28;20206;-84
2022/04/18 05:23:33;;;;;;;3.00;2.70;;;;;;;;;;5057263;28;20197;-83
2022/04/18 05:26:00;;;;;;;3.17;2.88;;;;;;;;;;5059230;28;20201;-83
2022/04/18 05:28:27;;;;;;;2.30;2.10;;;;;;;;;;5058976;28;20221;-83
2022/04/18 05:30:55;;;;;;;2.47;2.28;;;;;;;;;;5056550;28;20635;-82
2022/04/18 05:33:23;;;;;;;1.88;1.77;;;;;;;;;;5056568;28;20228;-83
2022/04/18 05:35:52;;;;;;;1.75;1.65;;;;;;;;;;5056887;28;20206;-83
2022/04/18 05:38:19;;;;;;;2.17;2.00;;;;;;;;;;5056918;28;20209;-83
2022/04/18 05:40:46;;;;;;;1.70;1.60;;;;;;;;;;5056494;28;20209;-84
2022/04/18 05:43:15;;;;;;;1.60;1.50;;;;;;;;;;5055970;28;20201;-83
2022/04/18 05:45:42;;;;;;;2.22;2.03;;;;;;;;;;5055771;28;20251;-83
2022/04/18 05:48:10;;;;;;;1.85;1.75;;;;;;;;;;5055453;28;20229;-78
2022/04/18 05:50:44;;;;;;;2.40;2.20;;;;;;;;;;5055114;28;20213;-78
2022/04/18 05:53:13;;;;;;;2.17;2.00;;;;;;;;;;5054598;28;20210;-78
2022/04/18 05:55:40;;;;;;;2.22;1.85;;;;;;;;;;5054015;28;20263;-78
2022/04/18 05:58:08;;;;;;;2.08;1.90;;;;;;;;;;5054352;28;20202;-77
2022/04/18 06:00:35;;;;;;;2.53;2.33;;;;;;;;;;5054122;28;20201;-78
2022/04/18 06:03:02;;;;;;;3.42;2.40;;;;;;;;;;5054009;28;20670;-78
2022/04/18 06:05:30;;;;;;;2.10;2.00;;;;;;;;;;5054869;28;20552;-78
2022/04/18 06:07:57;;;;;;;1.88;1.70;;;;;;;;;;5054543;28;20767;-79
2022/04/18 06:10:26;;;;;;;2.58;2.15;;;;;;;;;;5055229;28;20229;-79
2022/04/18 06:12:54;;;;;;;2.30;2.10;;;;;;;;;;5054692;28;20202;-78
2022/04/18 06:15:22;;;;;;;1.80;1.70;;;;;;;;;;5055064;28;20201;-78
2022/04/18 06:17:49;;;;;;;2.15;2.03;;;;;;;;;;5055211;28;20201;-79
2022/04/18 06:20:16;;;;;;;3.70;2.70;;;;;;;;;;5055593;28;20609;-78
2022/04/18 06:22:43;;;;;;;1.88;1.63;;;;;;;;;;5054900;28;20201;-78
2022/04/18 06:25:11;;;;;;;3.47;2.08;;;;;;;;;;5055045;28;20204;-79
2022/04/18 06:27:39;;;;;;;1.90;1.80;;;;;;;;;;5055248;28;20759;-78
2022/04/18 06:30:08;;;;;;;3.35;1.98;;;;;;;;;;5055283;28;20225;-79
2022/04/18 06:32:37;;;;;;;2.00;1.80;;;;;;;;;;5054831;28;20202;-79
2022/04/18 06:35:06;;;;;;;2.17;1.90;;;;;;;;;;5054823;28;20202;-79
2022/04/18 06:37:33;;;;;;;1.92;1.73;;;;;;;;;;5055623;28;20206;-79
2022/04/18 06:40:00;;;;;;;2.35;2.15;;;;;;;;;;5055415;28;20225;-80
2022/04/18 06:42:28;;;;;;;3.95;2.13;;;;;;;;;;5054766;28;20206;-79
2022/04/18 06:44:56;;;;;;;2.47;2.22;;;;;;;;;;5054674;28;20275;-80
2022/04/18 06:47:23;;;;;;;2.38;2.15;;;;;;;;;;5054688;28;20645;-79
2022/04/18 06:49:51;;;;;;;2.10;1.90;;;;;;;;;;5054581;28;20279;-79
2022/04/18 06:52:18;;;;;;;1.98;1.88;;;;;;;;;;5054030;28;20258;-79
2022/04/18 06:54:45;;;;;;;2.20;2.00;;;;;;;;;;5054227;28;20206;-80
2022/04/18 06:57:11;;;;;;;2.30;2.10;;;;;;;;;;5054576;28;20205;-79
2022/04/18 06:59:39;;;;;;;1.98;1.88;;;;;;;;;;5053672;28;20573;-80
2022/04/18 07:02:08;;;;;;;2.05;1.95;;;;;;;;;;5053625;28;20209;-79
2022/04/18 07:04:35;;;;;;;2.60;2.40;;;;;;;;;;5053361;28;20206;-80
2022/04/18 07:07:04;;;;;;;2.47;2.25;;;;;;;;;;5053946;28;20236;-80
2022/04/18 07:09:31;;;;;;;2.97;2.67;;;;;;;;;;5053717;28;20675;-79
2022/04/18 07:11:59;;;;;;;2.78;2.20;;;;;;;;;;5053538;28;20206;-79
2022/04/18 07:14:26;;;;;;;2.03;1.83;;;;;;;;;;5053093;28;20209;-79
2022/04/18 07:16:53;;;;;;;2.75;2.10;;;;;;;;;;5053544;28;20291;-81
2022/04/18 07:19:22;;;;;;;2.10;1.90;;;;;;;;;;5053311;28;20605;-79
2022/04/18 07:21:49;;;;;;;2.17;2.05;;;;;;;;;;5052991;28;20212;-79
2022/04/18 07:24:16;;;;;;;1.65;1.55;;;;;;;;;;5052888;28;20259;-80
2022/04/18 07:26:44;;;;;;;1.60;1.50;;;;;;;;;;5053381;28;20212;-80
2022/04/18 07:29:11;;;;;;;2.10;2.00;;;;;;;;;;5053171;28;20225;-80
2022/04/18 07:31:39;;;;;;;2.35;1.98;;;;;;;;;;5052760;28;20198;-80
2022/04/18 07:34:06;;;;;;;2.15;2.05;;;;;;;;;;5053042;28;20235;-82
2022/04/18 07:36:35;;;;;;;1.98;1.85;;;;;;;;;;5052774;28;20210;-79
2022/04/18 07:39:02;;;;;;;3.03;2.42;;;;;;;;;;5052331;28;20333;-80
2022/04/18 07:41:31;;;;;;;2.35;1.83;;;;;;;;;;5053183;28;20205;-80
2022/04/18 07:44:01;;;;;;;1.95;1.83;;;;;;;;;;5052618;28;20206;-80
2022/04/18 07:46:29;;;;;;;1.70;1.60;;;;;;;;;;5044147;28;20206;-80
2022/04/18 07:48:56;;;;;;;2.97;1.67;;;;;;;;;;5031810;28;20226;-80
2022/04/18 07:51:34;;;;;;;1.70;1.60;;;;;;;;;;5032759;28;20206;-80
2022/04/18 07:54:05;;;;;;;3.33;2.25;;;;;;;;;;5033187;28;20206;-79
2022/04/18 07:56:33;;;;;;;2.33;2.13;;;;;;;;;;5032791;28;20209;-79
2022/04/18 07:59:00;;;;;;;2.55;2.33;;;;;;;;;;5032859;28;20301;-80
2022/04/18 08:01:28;;;;;;;1.70;1.60;;;;;;;;;;5032952;28;20199;-80
2022/04/18 08:03:56;;;;;;;2.05;1.55;;;;;;;;;;5031948;28;20809;-81
2022/04/18 08:06:24;;;;;;;1.50;1.40;;;;;;;;;;5032795;28;20580;-80
2022/04/18 08:08:51;;;;;;;1.85;1.75;;;;;;;;;;5032319;28;20226;-80
2022/04/18 08:11:20;;;;;;;1.95;1.77;;;;;;;;;;5032576;28;20736;-80
2022/04/18 08:13:49;;;;;;;1.20;1.20;;;;;;;;;;5032338;28;20198;-80
2022/04/18 08:16:16;;;;;;;1.58;1.48;;;;;;;;;;5032363;28;20202;-80
2022/04/18 08:18:45;;;;;;;1.52;1.30;;;;;;;;;;5032641;28;20670;-81
2022/04/18 08:21:13;;;;;;;1.05;1.05;;;;;;;;;;5051493;28;20771;-80
2022/04/18 08:23:40;;;;;;;1.45;1.35;;;;;;;;;;5051693;28;20205;-79
2022/04/18 08:26:07;;;;;;;1.65;1.50;;;;;;;;;;5051810;28;20202;-80
2022/04/18 08:28:37;;;;;;;1.40;1.23;;;;;;;;;;5051660;28;20226;-80
2022/04/18 08:31:05;;;;;;;1.38;1.27;;;;;;;;;;5052037;28;20648;-81
2022/04/18 08:33:33;;;;;;;1.40;1.30;;;;;;;;;;5051717;28;20247;-80
2022/04/18 08:36:01;;;;;;;1.05;1.05;;;;;;;;;;5051768;28;20251;-80
2022/04/18 08:38:28;;;;;;;1.30;1.20;;;;;;;;;;5052060;28;20629;-80
2022/04/18 08:40:58;;;;;;;1.40;1.25;;;;;;;;;;5052016;28;20197;-80
2022/04/18 08:43:26;;;;;;;1.52;1.30;;;;;;;;;;5052057;28;20205;-79
2022/04/18 08:45:56;;;;;;;1.40;1.30;;;;;;;;;;5051435;28;20260;-79
2022/04/18 08:53:58;;;;;;;1.67;1.58;;;;;;;;;;5055492;28;20574;-80
2022/04/18 08:56:25;;;;;;;1.38;1.30;;;;;;;;;;5055665;28;20202;-79
2022/04/18 08:58:53;;;;;;;1.55;0.93;;;;;;;;;;5055480;28;20224;-80
2022/04/18 09:01:21;;;;;;;1.42;1.33;;;;;;;;;;5055466;28;20689;-80
2022/04/18 09:03:49;;;;;;;1.58;1.30;;;;;;;;;;5055197;28;20234;-80
2022/04/18 09:06:16;;;;;;;1.75;1.20;;;;;;;;;;5055364;28;20665;-79
2022/04/18 09:08:46;;;;;;;0.88;0.88;;;;;;;;;;5055082;28;20225;-80
2022/04/18 09:11:26;;;;;;;0.90;0.90;;;;;;;;;;5055555;28;20209;-80
2022/04/18 09:13:59;;;;;;;1.15;1.05;;;;;;;;;;5055381;28;20205;-80
2022/04/18 09:16:31;;;;;;;1.08;1.08;;;;;;;;;;5055360;28;20205;-79
2022/04/18 09:19:12;;;;;;;1.13;1.08;;;;;;;;;;5055258;28;20647;-80
2022/04/18 09:21:44;;;;;;;1.10;1.10;;;;;;;;;;5055259;28;20569;-78
2022/04/18 09:24:31;;;;;;;1.45;1.35;;;;;;;;;;5055376;28;20205;-80
2022/04/18 09:26:59;;;;;;;0.70;0.70;;;;;;;;;;5054900;28;20248;-81
2022/04/18 09:29:27;;;;;;;1.08;0.98;;;;;;;;;;5054851;28;20702;-81
2022/04/18 09:31:55;;;;;;;0.73;0.73;;;;;;;;;;5055063;28;20251;-81
2022/04/18 09:34:26;;;;;;;0.90;0.90;;;;;;;;;;5054784;28;20201;-80
2022/04/18 09:37:11;;;;;;;1.00;1.00;;;;;;;;;;5054927;28;20202;-80
2022/04/18 09:39:38;;;;;;;0.90;0.90;;;;;;;;;;5055172;28;20304;-81
2022/04/18 09:42:10;;;;;;;0.93;0.90;;;;;;;;;;5054269;28;20202;-80
2022/04/18 09:44:38;;;;;;;1.13;1.13;;;;;;;;;;5054822;28;20205;-81
2022/04/18 09:47:06;;;;;;;2.83;1.15;;;;;;;;;;5055006;28;20202;-81
2022/04/18 09:49:40;;;;;;;0.80;0.80;;;;;;;;;;5054437;28;20291;-81
2022/04/18 09:52:09;;;;;;;0.90;0.90;;;;;;;;;;5054850;28;20584;-82
2022/04/18 09:54:36;;;;;;;1.67;0.93;;;;;;;;;;5055545;28;20730;-81
2022/04/18 09:57:06;;;;;;;0.93;0.93;;;;;;;;;;5056061;28;20654;-81
2022/04/18 09:59:34;;;;;;;0.90;0.90;;;;;;;;;;5055818;28;20241;-81
2022/04/18 10:02:02;;;;;;;1.25;1.15;;;;;;;;;;5054990;28;20680;-82
2022/04/18 10:04:31;;;;;;;1.13;1.02;;;;;;;;;;5057188;28;20229;-82
2022/04/18 10:06:59;;;;;;;1.35;1.25;;;;;;;;;;5056045;28;20209;-81
2022/04/18 10:09:26;;;;;;;0.85;0.85;;;;;;;;;;5056775;28;20837;-82
2022/04/18 10:11:53;;;;;;;0.75;0.75;;;;;;;;;;5056513;28;20213;-82
2022/04/18 10:14:21;;;;;;;0.90;0.90;;;;;;;;;;5056120;28;20206;-81
2022/04/18 10:16:48;;;;;;;0.85;0.85;;;;;;;;;;5057151;28;20206;-81
2022/04/18 10:19:29;;;;;;;0.90;0.90;;;;;;;;;;5056739;28;20280;-82
2022/04/18 10:22:14;;;;;;;1.02;1.02;;;;;;;;;;5056017;28;20701;-82
2022/04/18 10:25:07;;;;;;;0.82;0.82;;;;;;;;;;5055766;28;20197;-81
2022/04/18 10:28:03;;;;;;;0.70;0.70;;;;;;;;;;5056957;28;20265;-82
2022/04/18 10:30:35;;;;;;;1.60;1.30;;;;;;;;;;5055639;28;20261;-81
2022/04/18 10:33:04;;;;;;;0.80;0.80;;;;;;;;;;5053723;28;20263;-82
2022/04/18 10:35:31;;;;;;;1.10;1.10;;;;;;;;;;5052401;28;20190;-81
2022/04/18 10:38:04;;;;;;;2.28;1.10;;;;;;;;;;5056167;28;20674;-81
2022/04/18 10:40:41;;;;;;;0.80;0.80;;;;;;;;;;5056135;28;20289;-82
2022/04/18 10:43:10;;;;;;;0.95;0.95;;;;;;;;;;5055446;28;20304;-81
2022/04/18 10:45:39;;;;;;;0.88;0.88;;;;;;;;;;5055979;28;20244;-81
2022/04/18 10:48:09;;;;;;;0.80;0.80;;;;;;;;;;5056678;28;20681;-81
2022/04/18 10:50:43;;;;;;;1.13;1.02;;;;;;;;;;5040929;28;20222;-80
2022/04/18 10:53:19;;;;;;;1.27;1.17;;;;;;;;;;5035842;28;20206;-81
2022/04/18 10:56:11;;;;;;;1.08;1.08;;;;;;;;;;5035430;28;20583;-81
2022/04/18 10:58:40;;;;;;;1.45;1.35;;;;;;;;;;5035133;28;20261;-82
2022/04/18 11:01:09;;;;;;;1.00;1.00;;;;;;;;;;5035249;28;20202;-81
2022/04/18 11:03:56;;;;;;;0.80;0.80;;;;;;;;;;5035055;28;20210;-81
2022/04/18 11:06:52;;;;;;;0.93;0.93;;;;;;;;;;5032136;28;20202;-81
2022/04/18 11:09:25;;;;;;;1.20;1.10;;;;;;;;;;5034470;28;20253;-81
2022/04/18 11:12:13;;;;;;;1.70;1.60;;;;;;;;;;5034176;28;20242;-81
2022/04/18 11:14:54;;;;;;;1.20;1.20;;;;;;;;;;5024824;28;20202;-81
2022/04/18 11:17:31;;;;;;;0.80;0.80;;;;;;;;;;5034204;28;20206;-80
2022/04/18 11:20:24;;;;;;;0.88;0.88;;;;;;;;;;5043530;28;20222;-81
2022/04/18 11:23:22;;;;;;;1.13;0.90;;;;;;;;;;5056121;28;20630;-81
2022/04/18 11:25:59;;;;;;;1.00;1.00;;;;;;;;;;5055173;28;20202;-81
2022/04/18 11:28:34;;;;;;;0.70;0.70;;;;;;;;;;5054760;28;20217;-81
2022/04/18 11:31:01;;;;;;;0.80;0.80;;;;;;;;;;5054617;28;20224;-82
2022/04/18 11:33:28;;;;;;;1.17;0.80;;;;;;;;;;5054212;28;20208;-80
2022/04/18 11:36:02;;;;;;;0.65;0.65;;;;;;;;;;5054058;28;20213;-82
2022/04/18 11:38:30;;;;;;;0.40;0.40;;;;;;;;;;5055500;28;20218;-82
2022/04/18 11:40:58;;;;;;;0.80;0.80;;;;;;;;;;5055217;28;20251;-82
2022/04/18 11:43:26;;;;;;;0.85;0.85;;;;;;;;;;5052929;28;20212;-81
2022/04/18 11:46:06;;;;;;;1.15;1.15;;;;;;;;;;5053916;28;20344;-81
2022/04/18 11:48:33;;;;;;;0.90;0.90;;;;;;;;;;5054049;28;20236;-81
2022/04/18 11:51:01;;;;;;;2.03;1.38;;;;;;;;;;5053959;28;20221;-81
2022/04/18 11:53:33;;;;;;;1.13;1.10;;;;;;;;;;5054448;28;20592;-81
2022/04/18 11:56:04;;;;;;;1.00;1.00;;;;;;;;;;5054031;28;20212;-82
2022/04/18 11:58:36;;;;;;;1.05;1.00;;;;;;;;;;5053366;28;20225;-83
2022/04/18 12:06:47;;;;;;;0.90;0.90;;;;;;;;;;5054052;28;20204;-81
2022/04/18 12:09:16;;;;;;;0.90;0.90;;;;;;;;;;5052581;28;20275;-81
2022/04/18 12:11:45;;;;;;;1.10;0.98;;;;;;;;;;5052171;28;20226;-80
2022/04/18 12:14:13;;;;;;;0.88;0.88;;;;;;;;;;5052495;28;20201;-81
2022/04/18 12:16:41;;;;;;;0.90;0.90;;;;;;;;;;5052683;28;20627;-81
2022/04/18 12:19:14;;;;;;;0.90;0.90;;;;;;;;;;5053101;28;20225;-81
2022/04/18 12:21:41;;;;;;;3.67;0.90;;;;;;;;;;5053380;28;20194;-80
2022/04/18 12:24:09;;;;;;;0.80;0.80;;;;;;;;;;5054853;28;20700;-81
2022/04/18 12:26:38;;;;;;;1.27;0.85;;;;;;;;;;5056934;28;20704;-80
2022/04/18 12:29:09;;;;;;;0.73;0.73;;;;;;;;;;5056359;28;20221;-80
2022/04/18 12:31:40;;;;;;;0.60;0.60;;;;;;;;;;5057751;28;20228;-81
2022/04/18 12:34:07;;;;;;;0.80;0.80;;;;;;;;;;5058003;28;20256;-81
2022/04/18 12:36:35;;;;;;;0.90;0.90;;;;;;;;;;5056895;28;20209;-81
2022/04/18 12:39:04;;;;;;;1.23;1.10;;;;;;;;;;5056714;28;20221;-80
2022/04/18 12:41:33;;;;;;;0.90;0.90;;;;;;;;;;5056576;28;20193;-80
2022/04/18 12:44:01;;;;;;;0.93;0.93;;;;;;;;;;5057146;28;20232;-80
2022/04/18 12:46:32;;;;;;;1.73;1.30;;;;;;;;;;5057283;28;20228;-81
2022/04/18 12:49:05;;;;;;;1.48;1.38;;;;;;;;;;5056909;28;20221;-80
2022/04/18 12:51:34;;;;;;;1.08;1.05;;;;;;;;;;5056662;28;20260;-80
2022/04/18 12:54:02;;;;;;;1.17;1.05;;;;;;;;;;5056396;28;20256;-79
2022/04/18 12:56:30;;;;;;;1.15;1.08;;;;;;;;;;5057009;28;20625;-80
2022/04/18 12:59:03;;;;;;;1.02;1.00;;;;;;;;;;5057907;28;20226;-81
2022/04/18 13:01:34;;;;;;;1.08;1.08;;;;;;;;;;5056901;28;20198;-78
2022/04/18 13:04:03;;;;;;;1.05;1.05;;;;;;;;;;5057795;28;20297;-81
2022/04/18 13:06:32;;;;;;;0.80;0.80;;;;;;;;;;5056954;28;20596;-80
2022/04/18 13:09:04;;;;;;;0.80;0.80;;;;;;;;;;5056880;28;20233;-80
2022/04/18 13:11:39;;;;;;;0.90;0.90;;;;;;;;;;5056839;28;20641;-79
2022/04/18 13:14:08;;;;;;;0.90;0.90;;;;;;;;;;5056378;28;20204;-79
2022/04/18 13:16:36;;;;;;;0.75;0.75;;;;;;;;;;5056450;28;20209;-80
2022/04/18 13:19:09;;;;;;;0.60;0.60;;;;;;;;;;5056256;28;20278;-80
2022/04/18 13:21:37;;;;;;;0.70;0.70;;;;;;;;;;5055754;28;20221;-80
2022/04/18 13:24:07;;;;;;;0.88;0.70;;;;;;;;;;5055609;28;20479;-80
2022/04/18 13:26:35;;;;;;;0.50;0.50;;;;;;;;;;5055906;28;20201;-80
2022/04/18 13:29:03;;;;;;;0.50;0.50;;;;;;;;;;5055324;28;20312;-80
2022/04/18 13:31:31;;;;;;;0.70;0.70;;;;;;;;;;5055195;28;20260;-80
2022/04/18 13:34:00;;;;;;;0.90;0.90;;;;;;;;;;5055300;28;20205;-80
2022/04/18 13:36:37;;;;;;;0.90;0.90;;;;;;;;;;5055227;28;20209;-80
2022/04/18 13:39:06;;;;;;;0.93;0.93;;;;;;;;;;5054801;28;20763;-81
2022/04/18 13:41:34;;;;;;;1.17;1.10;;;;;;;;;;5055154;28;20618;-80
2022/04/18 13:44:02;;;;;;;0.70;0.70;;;;;;;;;;5055373;28;20206;-81
2022/04/18 13:46:30;;;;;;;1.25;1.10;;;;;;;;;;5055173;28;20259;-79
2022/04/18 13:49:00;;;;;;;1.40;1.30;;;;;;;;;;5054903;28;20247;-80
2022/04/18 13:51:29;;;;;;;0.98;0.98;;;;;;;;;;5054765;28;20566;-81
2022/04/18 13:53:58;;;;;;;1.10;1.10;;;;;;;;;;5054747;28;20206;-80
2022/04/18 13:56:27;;;;;;;1.58;1.10;;;;;;;;;;5054103;28;20229;-79
2022/04/18 13:58:55;;;;;;;0.85;0.85;;;;;;;;;;5054851;28;20221;-79
2022/04/18 14:01:23;;;;;;;0.80;0.80;;;;;;;;;;5054599;28;20201;-80
2022/04/18 14:03:50;;;;;;;1.00;0.77;;;;;;;;;;5054849;28;20206;-80
2022/04/18 14:06:19;;;;;;;1.02;1.02;;;;;;;;;;5055265;28;20688;-80
2022/04/18 14:08:46;;;;;;;0.98;0.98;;;;;;;;;;5055301;28;20237;-80
2022/04/18 14:11:13;;;;;;;0.43;0.43;;;;;;;;;;5055899;28;20251;-81
2022/04/18 14:13:41;;;;;;;0.80;0.73;;;;;;;;;;5055513;28;20201;-81
2022/04/18 14:21:56;;;;;;;0.57;0.57;;;;;;;;;;5054764;28;20255;-81
2022/04/18 14:24:23;;;;;;;1.10;1.10;;;;;;;;;;5054672;28;20216;-81
2022/04/18 14:26:51;;;;;;;0.80;0.80;;;;;;;;;;5056023;28;20691;-81
2022/04/18 14:29:18;;;;;;;1.25;1.20;;;;;;;;;;5055567;28;20264;-80
2022/04/18 14:31:45;;;;;;;0.90;0.90;;;;;;;;;;5054688;28;20256;-81
2022/04/18 14:34:13;;;;;;;0.80;0.80;;;;;;;;;;5055380;28;20212;-80
2022/04/18 14:36:40;;;;;;;0.90;0.90;;;;;;;;;;5054854;28;20205;-80
2022/04/18 14:39:09;;;;;;;1.17;1.10;;;;;;;;;;5061600;28;20222;-80
2022/04/18 14:41:36;;;;;;;0.73;0.73;;;;;;;;;;5054790;28;20217;-80
2022/04/18 14:44:04;;;;;;;0.77;0.77;;;;;;;;;;5054665;28;20536;-80
2022/04/18 14:46:31;;;;;;;0.80;0.80;;;;;;;;;;5053300;28;20201;-79
2022/04/18 14:48:59;;;;;;;0.88;0.88;;;;;;;;;;5054106;28;20230;-80
2022/04/18 14:51:27;;;;;;;0.73;0.73;;;;;;;;;;5054574;28;20201;-80
2022/04/18 14:53:54;;;;;;;0.73;0.73;;;;;;;;;;5053483;28;20585;-81
2022/04/18 14:56:23;;;;;;;1.00;1.00;;;;;;;;;;5054923;28;20201;-80
2022/04/18 14:58:51;;;;;;;0.90;0.90;;;;;;;;;;5056434;28;20217;-80
2022/04/18 15:01:19;;;;;;;1.00;1.00;;;;;;;;;;5055255;28;20296;-80
2022/04/18 15:03:47;;;;;;;1.30;1.05;;;;;;;;;;5055905;28;20584;-81
2022/04/18 15:06:15;;;;;;;0.90;0.90;;;;;;;;;;5056109;28;20594;-79
2022/04/18 15:08:42;;;;;;;1.15;1.08;;;;;;;;;;5053436;28;20230;-79
2022/04/18 15:11:10;;;;;;;1.10;1.10;;;;;;;;;;5053767;28;20689;-79
2022/04/18 15:13:38;;;;;;;1.35;1.25;;;;;;;;;;5054230;28;20221;-79
2022/04/18 15:16:06;;;;;;;1.40;1.05;;;;;;;;;;5054487;28;20228;-79